Terminal Aerodrome Forecast
Issued by NWS Portland, OR

Home | Current Version | Previous Version | Text Only | Print | Product List | Glossary On
Versions: 1 2 3 4 5 6 7 8 9 10 11 12 13 14 15 16 17 18 19 20 21 22 23 24 25 26 27 28 29 30 31 32 33 34 35 36 37 38 39 40
000
FTUS46 KPQR 060520
TAFAST
TAF
KAST 060520Z 0606/0706 VRB03KT P6SM -SHRA BKN050
     FM061100 20006KT P6SM -SHRA SCT025 OVC045
     FM061700 31007KT P6SM VCSH BKN045
     FM062300 30011KT P6SM SCT040=

USA.gov is the U.S. government's official web portal to all federal, state and local government web resources and services.